Weather observations for the past three days for
Cold Bay, Cold Bay Airport
| Date | Time (akdt) | Wind (kph) | Vis. (km) | Weather | Sky Cond. | Temperature (ºC) | Relative Humidity | Wind Chill (°C) | Heat Index (°C) | Pressure | Precipitation (cm) | ||||||
|---|---|---|---|---|---|---|---|---|---|---|---|---|---|---|---|---|---|
| Air | Dwpt | 6 hour | altimeter (cm) | sea level (mb) | 1 hr | 3 hr | 6 hr | ||||||||||
| Max. | Min. | ||||||||||||||||
| 08 | 03:53 | N 15 | 16.09 | Overcast | OVC004 | -1.7 | -2.2 | -0.6 | -1.7 | 96% | -6 | 75.77 | 1010.2 | ||||
| 08 | 02:53 | N 15 | 16.09 | Overcast | OVC005 | -1.7 | -2.8 | 92% | -6 | 75.82 | 1010.8 | ||||||
| 08 | 01:53 | NW 17 | 16.09 | Overcast | OVC005 | -1.7 | -2.8 | 92% | -6 | 75.84 | 1011.1 | ||||||
| 08 | 00:53 | N 19 | 16.09 | Overcast | OVC005 | -1.7 | -2.8 | 92% | -7 | 75.84 | 1011.1 | ||||||
| 07 | 23:53 | N 17 | 16.09 | Overcast | OVC004 | -1.7 | -2.8 | 92% | -6 | 75.87 | 1011.7 | ||||||
| 07 | 22:53 | NW 13 | 16.09 | Overcast | OVC003 | -1.1 | -2.2 | 92% | -5 | 75.87 | 1011.7 | ||||||
| 07 | 21:53 | NW 17 | 16.09 | Overcast | OVC004 | -0.6 | -1.7 | 6.7 | -0.6 | 92% | -5 | 75.87 | 1011.5 | ||||
| 07 | 20:53 | N 20 | 16.09 | Overcast | OVC007 | 0.6 | -1.1 | 89% | -4 | 75.87 | 1011.6 | ||||||
| 07 | 19:53 | N 19 | 16.09 | Partly Cloudy | SCT009 | 2.2 | -1.1 | 79% | -2 | 75.87 | 1011.6 | ||||||
| 07 | 18:53 | N 20 | 16.09 | Fair | CLR | 5 | 0 | 70% | 1 | 75.87 | 1011.8 | ||||||
| 07 | 17:53 | N 26 | 16.09 | Fair | CLR | 5.6 | 0 | 68% | 2 | 75.9 | 1012.1 | ||||||
| 07 | 16:53 | NW 24 G 35 | 16.09 | Fair | CLR | 6.1 | -0.6 | 63% | 2 | 75.95 | 1012.6 | ||||||
| 07 | 08:53 | NE 17 | 4.02 | Fog/Mist | SCT003 OVC010 | -0.6 | -1.7 | 92% | -5 | 76.15 | 1015.3 | ||||||
| 07 | 07:53 | SE 6 | 16.09 | Fair | CLR | -1.1 | -2.8 | 88% | 76.15 | 1015.2 | |||||||
| 07 | 06:53 | E 9 | 16.09 | Fair | CLR | -2.2 | -3.3 | 92% | -5 | 76.15 | 1015.4 | ||||||
| 07 | 05:53 | SE 15 | 16.09 | A Few Clouds | FEW019 | -1.7 | -3.9 | 85% | -6 | 76.15 | 1015.5 | ||||||
| 07 | 04:53 | SE 17 | 16.09 | Fair | CLR | -2.8 | -4.4 | 89% | -8 | 76.17 | 1015.6 | ||||||
| 07 | 03:53 | SE 13 | 16.09 | Fair | CLR | -2.8 | -4.4 | 1.1 | -2.8 | 89% | -7 | 76.2 | 1016.1 | ||||
| 07 | 02:53 | S 19 | 16.09 | Fair | CLR | -1.7 | -3.9 | 85% | -7 | 76.25 | 1016.6 | ||||||
| 07 | 01:53 | SE 15 | 16.09 | Fair | CLR | -2.2 | -3.9 | 88% | -7 | 76.28 | 1016.9 | ||||||
| 07 | 00:53 | SE 19 | 16.09 | Fair | CLR | -1.1 | -3.9 | 82% | -6 | 76.28 | 1017.1 | ||||||
| 06 | 23:53 | S 17 | 16.09 | Fair | CLR | -1.1 | -3.3 | 85% | -6 | 76.28 | 1017.1 | ||||||
| 06 | 22:53 | SE 17 | 16.09 | Fair | CLR | -0.6 | -3.3 | 82% | -5 | 76.28 | 1017.2 | ||||||
| 06 | 21:53 | SE 15 | 16.09 | Fair | CLR | 1.1 | -2.8 | 5 | 1.1 | 76% | -3 | 76.28 | 1017.0 | ||||
| 06 | 20:53 | SE 19 | 16.09 | Fair | CLR | 3.3 | -2.2 | 68% | -1 | 76.28 | 1017.0 | ||||||
| 06 | 19:53 | SE 15 | 16.09 | Fair | CLR | 5 | -1.7 | 62% | 2 | 76.28 | 1016.9 | ||||||
| 06 | 18:53 | E 15 | 16.09 | Fair | CLR | 3.9 | -1.7 | 67% | 1 | 76.28 | 1017.0 | ||||||
| 06 | 17:53 | NE 15 | 16.09 | Fair | CLR | 3.9 | -1.7 | 67% | 1 | 76.3 | 1017.4 | ||||||
| 06 | 16:53 | NE 15 | 16.09 | Fair | CLR | 4.4 | -1.7 | 65% | 1 | 76.35 | 1018.0 | ||||||
| 06 | 14:53 | NE 11 | 16.09 | Fair | CLR | 2.2 | -2.8 | 70% | -1 | 76.4 | 1018.7 | ||||||
| 06 | 13:53 | E 11 | 16.09 | Fair | CLR | 1.7 | -3.3 | 70% | -1 | 76.43 | 1019.1 | ||||||
| 06 | 12:53 | E 7 | 16.09 | A Few Clouds | FEW016 | 0.6 | -3.9 | 72% | -1 | 76.48 | 1019.9 | ||||||
| 06 | 11:53 | E 9 | 16.09 | Partly Cloudy | SCT014 | 0 | -3.9 | 75% | -3 | 76.48 | 1019.8 | ||||||
| 06 | 10:53 | NE 15 | 16.09 | Overcast | OVC013 | -1.1 | -4.4 | 79% | -5 | 76.48 | 1019.6 | ||||||
| 06 | 09:53 | Calm | 16.09 | Overcast | OVC012 | -1.7 | -5 | -1.7 | -2.2 | 78% | 76.5 | 1020.0 | |||||
| 05 | 16:53 | NW 22 | 16.09 | Overcast | BKN014 OVC019 | 1.1 | -2.2 | 79% | -4 | 76.4 | 1018.7 | ||||||
| 05 | 15:53 | NW 26 | 16.09 | Overcast | OVC017 | 0.6 | -2.8 | 1.1 | -1.1 | 78% | -5 | 76.4 | 1018.7 | ||||
| 05 | 14:53 | NW 22 | 16.09 | Overcast | OVC020 | 1.1 | -3.3 | 73% | -4 | 76.4 | 1018.6 | ||||||
| 05 | 13:53 | NW 28 | 16.09 | Overcast | OVC016 | -0.6 | -3.9 | 79% | -7 | 76.38 | 1018.4 | ||||||
| 05 | 12:53 | NW 30 | 16.09 | Overcast | OVC017 | -0.6 | -3.9 | 79% | -7 | 76.35 | 1018.0 | ||||||
| 05 | 11:53 | NW 26 | 16.09 | Overcast | OVC018 | -0.6 | -4.4 | 76% | -6 | 76.33 | 1017.6 | ||||||
| 05 | 10:53 | NW 30 G 43 | 16.09 | Overcast | OVC018 | -0.6 | -4.4 | 76% | -7 | 76.25 | 1016.8 | ||||||
| 05 | 09:53 | NW 30 | 16.09 | Overcast | OVC017 | -1.1 | -3.9 | -0.6 | -1.1 | 82% | -7 | 76.25 | 1016.5 | ||||
| 05 | 08:53 | NW 33 G 50 | 16.09 | Overcast and Breezy | OVC017 | -1.1 | -4.4 | 79% | -8 | 76.2 | 1015.9 | ||||||
| 05 | 07:53 | NW 30 | 16.09 | Overcast | OVC018 | -1.1 | -3.9 | 82% | -7 | 76.15 | 1015.2 | ||||||
| 05 | 06:53 | NW 24 | 16.09 | Overcast | OVC019 | -1.1 | -3.9 | 82% | -7 | 76.07 | 1014.4 | ||||||
| 05 | 05:53 | NW 30 | 16.09 | Overcast | OVC016 | -1.1 | -3.9 | 82% | -7 | 76.05 | 1013.9 | ||||||
| 05 | 04:53 | NW 30 G 44 | 16.09 | Overcast | OVC014 | -0.6 | -3.3 | 82% | -7 | 76 | 1013.2 | ||||||
| Date | Time (akdt) | Wind (kph) | Vis. (km) | Weather | Sky Cond. | Air | Dwpt | Max. | Min. | Relative Humidity | Wind Chill (°C) | Heat Index (°C) | altimeter (cm) | sea level (mb) | 1 hr | 3 hr | 6 hr |
| 6 hour | |||||||||||||||||
| Temperature (ºC) | Pressure | Precipitation (cm) | |||||||||||||||